sensor_id;sensor_type;location;lat;lon;timestamp;temperature;humidity
67899;DHT22;54699;51.796;10.956;2023-04-24T00:02:25;21.10;54.70
67899;DHT22;54699;51.796;10.956;2023-04-24T00:04:52;21.10;54.50
67899;DHT22;54699;51.796;10.956;2023-04-24T00:07:20;21.10;54.60
67899;DHT22;54699;51.796;10.956;2023-04-24T00:09:47;21.10;54.40
67899;DHT22;54699;51.796;10.956;2023-04-24T00:12:14;21.20;54.50
67899;DHT22;54699;51.796;10.956;2023-04-24T00:14:41;21.10;54.40
67899;DHT22;54699;51.796;10.956;2023-04-24T00:17:08;21.10;54.60
67899;DHT22;54699;51.796;10.956;2023-04-24T00:19:35;21.10;55.00
67899;DHT22;54699;51.796;10.956;2023-04-24T00:22:02;21.10;54.60
67899;DHT22;54699;51.796;10.956;2023-04-24T00:24:30;21.10;54.80
67899;DHT22;54699;51.796;10.956;2023-04-24T00:26:57;21.10;55.30
67899;DHT22;54699;51.796;10.956;2023-04-24T00:29:26;21.10;55.20
67899;DHT22;54699;51.796;10.956;2023-04-24T00:31:53;21.10;55.20
67899;DHT22;54699;51.796;10.956;2023-04-24T00:34:21;21.00;55.10
67899;DHT22;54699;51.796;10.956;2023-04-24T00:36:48;21.10;55.50
67899;DHT22;54699;51.796;10.956;2023-04-24T00:39:17;21.00;54.90
67899;DHT22;54699;51.796;10.956;2023-04-24T00:41:45;21.10;55.50
67899;DHT22;54699;51.796;10.956;2023-04-24T00:44:13;21.10;55.50
67899;DHT22;54699;51.796;10.956;2023-04-24T00:46:40;21.00;55.40
67899;DHT22;54699;51.796;10.956;2023-04-24T00:49:08;21.00;55.40
67899;DHT22;54699;51.796;10.956;2023-04-24T00:51:35;21.10;55.40
67899;DHT22;54699;51.796;10.956;2023-04-24T00:54:02;21.00;55.40
67899;DHT22;54699;51.796;10.956;2023-04-24T00:56:29;21.10;55.60
67899;DHT22;54699;51.796;10.956;2023-04-24T00:58:58;21.00;55.50
67899;DHT22;54699;51.796;10.956;2023-04-24T01:01:26;21.00;55.50
67899;DHT22;54699;51.796;10.956;2023-04-24T01:03:53;21.00;55.60
67899;DHT22;54699;51.796;10.956;2023-04-24T01:06:20;21.00;55.70
67899;DHT22;54699;51.796;10.956;2023-04-24T01:08:48;21.00;55.70
67899;DHT22;54699;51.796;10.956;2023-04-24T01:11:15;21.10;55.60
67899;DHT22;54699;51.796;10.956;2023-04-24T01:13:44;21.00;55.60
67899;DHT22;54699;51.796;10.956;2023-04-24T01:16:12;21.10;55.70
67899;DHT22;54699;51.796;10.956;2023-04-24T01:18:40;21.00;55.70
67899;DHT22;54699;51.796;10.956;2023-04-24T01:21:07;21.00;55.60
67899;DHT22;54699;51.796;10.956;2023-04-24T01:23:40;21.00;55.70
67899;DHT22;54699;51.796;10.956;2023-04-24T01:26:07;20.90;55.70
67899;DHT22;54699;51.796;10.956;2023-04-24T01:28:34;20.90;55.60
67899;DHT22;54699;51.796;10.956;2023-04-24T01:31:02;21.00;55.70
67899;DHT22;54699;51.796;10.956;2023-04-24T01:33:29;21.00;55.70
67899;DHT22;54699;51.796;10.956;2023-04-24T01:35:56;21.00;55.80
67899;DHT22;54699;51.796;10.956;2023-04-24T01:38:23;21.00;55.70
67899;DHT22;54699;51.796;10.956;2023-04-24T01:40:52;21.00;55.70
67899;DHT22;54699;51.796;10.956;2023-04-24T01:43:19;21.00;55.60
67899;DHT22;54699;51.796;10.956;2023-04-24T01:45:46;21.00;55.70
67899;DHT22;54699;51.796;10.956;2023-04-24T01:48:13;21.00;55.60
67899;DHT22;54699;51.796;10.956;2023-04-24T01:50:40;21.00;55.50
67899;DHT22;54699;51.796;10.956;2023-04-24T01:53:07;21.00;55.60
67899;DHT22;54699;51.796;10.956;2023-04-24T01:55:35;20.90;55.50
67899;DHT22;54699;51.796;10.956;2023-04-24T01:58:03;21.00;55.50
67899;DHT22;54699;51.796;10.956;2023-04-24T02:00:30;21.00;55.40
67899;DHT22;54699;51.796;10.956;2023-04-24T02:02:56;21.00;55.40
67899;DHT22;54699;51.796;10.956;2023-04-24T02:05:24;21.00;55.30
67899;DHT22;54699;51.796;10.956;2023-04-24T02:07:50;20.90;55.30
67899;DHT22;54699;51.796;10.956;2023-04-24T02:10:17;21.00;56.20
67899;DHT22;54699;51.796;10.956;2023-04-24T02:12:44;21.00;55.40
67899;DHT22;54699;51.796;10.956;2023-04-24T02:15:15;21.00;55.40
67899;DHT22;54699;51.796;10.956;2023-04-24T02:17:43;21.00;55.40
67899;DHT22;54699;51.796;10.956;2023-04-24T02:20:10;21.00;55.30
67899;DHT22;54699;51.796;10.956;2023-04-24T02:22:37;21.00;55.40
67899;DHT22;54699;51.796;10.956;2023-04-24T02:25:06;20.90;55.30
67899;DHT22;54699;51.796;10.956;2023-04-24T02:27:34;21.00;55.40
67899;DHT22;54699;51.796;10.956;2023-04-24T02:30:01;21.00;55.40
67899;DHT22;54699;51.796;10.956;2023-04-24T02:32:29;21.00;55.50
67899;DHT22;54699;51.796;10.956;2023-04-24T02:34:57;20.90;55.30
67899;DHT22;54699;51.796;10.956;2023-04-24T02:37:24;20.90;55.30
67899;DHT22;54699;51.796;10.956;2023-04-24T02:39:51;20.90;55.30
67899;DHT22;54699;51.796;10.956;2023-04-24T02:42:18;20.90;55.20
67899;DHT22;54699;51.796;10.956;2023-04-24T02:44:45;20.90;55.20
67899;DHT22;54699;51.796;10.956;2023-04-24T02:47:12;21.00;55.30
67899;DHT22;54699;51.796;10.956;2023-04-24T02:49:40;20.90;55.20
67899;DHT22;54699;51.796;10.956;2023-04-24T02:52:07;20.90;55.10
67899;DHT22;54699;51.796;10.956;2023-04-24T02:54:34;20.90;56.00
67899;DHT22;54699;51.796;10.956;2023-04-24T02:57:00;20.90;55.10
67899;DHT22;54699;51.796;10.956;2023-04-24T02:59:27;20.90;55.10
67899;DHT22;54699;51.796;10.956;2023-04-24T03:01:54;20.90;55.10
67899;DHT22;54699;51.796;10.956;2023-04-24T03:04:21;20.90;55.10
67899;DHT22;54699;51.796;10.956;2023-04-24T03:06:49;20.90;55.20
67899;DHT22;54699;51.796;10.956;2023-04-24T03:09:18;20.80;54.90
67899;DHT22;54699;51.796;10.956;2023-04-24T03:11:44;20.90;55.00
67899;DHT22;54699;51.796;10.956;2023-04-24T03:14:11;20.90;55.10
67899;DHT22;54699;51.796;10.956;2023-04-24T03:16:38;20.90;54.80
67899;DHT22;54699;51.796;10.956;2023-04-24T03:19:05;20.90;55.10
67899;DHT22;54699;51.796;10.956;2023-04-24T03:21:32;20.90;55.00
67899;DHT22;54699;51.796;10.956;2023-04-24T03:24:00;20.90;54.90
67899;DHT22;54699;51.796;10.956;2023-04-24T03:26:27;20.90;54.80
67899;DHT22;54699;51.796;10.956;2023-04-24T03:28:54;20.80;54.80
67899;DHT22;54699;51.796;10.956;2023-04-24T03:31:21;20.90;54.80
67899;DHT22;54699;51.796;10.956;2023-04-24T03:33:48;20.90;54.80
67899;DHT22;54699;51.796;10.956;2023-04-24T03:36:16;20.90;54.80
67899;DHT22;54699;51.796;10.956;2023-04-24T03:38:44;20.80;54.60
67899;DHT22;54699;51.796;10.956;2023-04-24T03:41:12;20.90;54.70
67899;DHT22;54699;51.796;10.956;2023-04-24T03:43:39;20.90;54.80
67899;DHT22;54699;51.796;10.956;2023-04-24T03:46:06;20.80;54.70
67899;DHT22;54699;51.796;10.956;2023-04-24T03:48:34;20.80;54.60
67899;DHT22;54699;51.796;10.956;2023-04-24T03:51:01;20.80;54.70
67899;DHT22;54699;51.796;10.956;2023-04-24T03:53:31;20.80;54.70
67899;DHT22;54699;51.796;10.956;2023-04-24T03:55:58;20.80;54.70
67899;DHT22;54699;51.796;10.956;2023-04-24T03:58:26;20.80;54.70
67899;DHT22;54699;51.796;10.956;2023-04-24T04:00:55;20.90;54.80
67899;DHT22;54699;51.796;10.956;2023-04-24T04:03:23;20.60;52.80
67899;DHT22;54699;51.796;10.956;2023-04-24T04:05:50;20.40;50.40
67899;DHT22;54699;51.796;10.956;2023-04-24T04:08:18;20.10;49.80
67899;DHT22;54699;51.796;10.956;2023-04-24T04:10:45;20.10;50.00
67899;DHT22;54699;51.796;10.956;2023-04-24T04:13:12;20.00;49.80
67899;DHT22;54699;51.796;10.956;2023-04-24T04:15:40;19.90;48.90
67899;DHT22;54699;51.796;10.956;2023-04-24T04:18:07;19.90;48.30
67899;DHT22;54699;51.796;10.956;2023-04-24T04:20:33;19.90;47.60
67899;DHT22;54699;51.796;10.956;2023-04-24T04:23:00;19.80;47.70
67899;DHT22;54699;51.796;10.956;2023-04-24T04:25:27;19.70;48.50
67899;DHT22;54699;51.796;10.956;2023-04-24T04:27:54;19.70;48.50
67899;DHT22;54699;51.796;10.956;2023-04-24T04:30:23;19.60;47.80
67899;DHT22;54699;51.796;10.956;2023-04-24T04:32:52;19.60;48.40
67899;DHT22;54699;51.796;10.956;2023-04-24T04:35:19;19.70;48.00
67899;DHT22;54699;51.796;10.956;2023-04-24T04:37:45;19.40;46.60
67899;DHT22;54699;51.796;10.956;2023-04-24T04:40:12;19.30;47.40
67899;DHT22;54699;51.796;10.956;2023-04-24T04:42:39;19.20;47.40
67899;DHT22;54699;51.796;10.956;2023-04-24T04:45:07;19.30;48.30
67899;DHT22;54699;51.796;10.956;2023-04-24T04:47:37;19.40;46.90
67899;DHT22;54699;51.796;10.956;2023-04-24T04:50:11;19.60;47.60
67899;DHT22;54699;51.796;10.956;2023-04-24T04:52:39;19.70;46.90
67899;DHT22;54699;51.796;10.956;2023-04-24T04:55:09;19.80;46.40
67899;DHT22;54699;51.796;10.956;2023-04-24T04:57:39;19.80;47.30
67899;DHT22;54699;51.796;10.956;2023-04-24T05:00:06;19.80;46.90
67899;DHT22;54699;51.796;10.956;2023-04-24T05:02:37;19.70;46.70
67899;DHT22;54699;51.796;10.956;2023-04-24T05:05:06;19.80;47.60
67899;DHT22;54699;51.796;10.956;2023-04-24T05:07:38;19.90;47.10
67899;DHT22;54699;51.796;10.956;2023-04-24T05:10:07;19.70;46.60
67899;DHT22;54699;51.796;10.956;2023-04-24T05:12:39;19.60;46.70
67899;DHT22;54699;51.796;10.956;2023-04-24T05:15:08;19.90;46.50
67899;DHT22;54699;51.796;10.956;2023-04-24T05:17:36;19.80;46.00
67899;DHT22;54699;51.796;10.956;2023-04-24T05:20:05;19.20;47.00
67899;DHT22;54699;51.796;10.956;2023-04-24T05:22:35;19.50;47.50
67899;DHT22;54699;51.796;10.956;2023-04-24T05:25:05;19.80;46.70
67899;DHT22;54699;51.796;10.956;2023-04-24T05:27:33;19.80;46.70
67899;DHT22;54699;51.796;10.956;2023-04-24T05:30:01;19.80;46.90
67899;DHT22;54699;51.796;10.956;2023-04-24T05:32:29;19.70;46.80
67899;DHT22;54699;51.796;10.956;2023-04-24T05:34:56;19.80;46.40
67899;DHT22;54699;51.796;10.956;2023-04-24T05:37:26;19.80;46.90
67899;DHT22;54699;51.796;10.956;2023-04-24T05:39:54;20.00;46.20
67899;DHT22;54699;51.796;10.956;2023-04-24T05:42:26;19.60;46.60
67899;DHT22;54699;51.796;10.956;2023-04-24T05:44:53;19.20;47.50
67899;DHT22;54699;51.796;10.956;2023-04-24T05:47:21;19.30;47.60
67899;DHT22;54699;51.796;10.956;2023-04-24T05:49:53;19.20;47.60
67899;DHT22;54699;51.796;10.956;2023-04-24T05:52:22;19.20;47.90
67899;DHT22;54699;51.796;10.956;2023-04-24T05:54:50;19.30;48.00
67899;DHT22;54699;51.796;10.956;2023-04-24T05:57:19;19.10;48.10
67899;DHT22;54699;51.796;10.956;2023-04-24T05:59:49;19.40;47.30
67899;DHT22;54699;51.796;10.956;2023-04-24T06:02:20;19.90;47.20
67899;DHT22;54699;51.796;10.956;2023-04-24T06:04:50;19.90;46.80
67899;DHT22;54699;51.796;10.956;2023-04-24T06:07:17;19.90;46.80
67899;DHT22;54699;51.796;10.956;2023-04-24T06:09:44;20.10;46.60
67899;DHT22;54699;51.796;10.956;2023-04-24T06:12:11;20.30;46.10
67899;DHT22;54699;51.796;10.956;2023-04-24T06:14:37;20.50;45.70
67899;DHT22;54699;51.796;10.956;2023-04-24T06:17:16;20.70;45.40
67899;DHT22;54699;51.796;10.956;2023-04-24T06:19:44;20.90;45.80
67899;DHT22;54699;51.796;10.956;2023-04-24T06:22:12;20.90;45.80
67899;DHT22;54699;51.796;10.956;2023-04-24T06:24:39;21.20;45.90
67899;DHT22;54699;51.796;10.956;2023-04-24T06:27:06;21.30;45.90
67899;DHT22;54699;51.796;10.956;2023-04-24T06:29:35;21.40;45.80
67899;DHT22;54699;51.796;10.956;2023-04-24T06:32:03;21.30;45.70
67899;DHT22;54699;51.796;10.956;2023-04-24T06:34:31;21.40;45.80
67899;DHT22;54699;51.796;10.956;2023-04-24T06:36:59;21.40;45.80
67899;DHT22;54699;51.796;10.956;2023-04-24T06:39:27;21.50;45.70
67899;DHT22;54699;51.796;10.956;2023-04-24T06:41:58;21.60;45.80
67899;DHT22;54699;51.796;10.956;2023-04-24T06:44:25;21.60;45.80
67899;DHT22;54699;51.796;10.956;2023-04-24T06:46:54;21.70;45.30
67899;DHT22;54699;51.796;10.956;2023-04-24T06:49:24;21.80;45.10
67899;DHT22;54699;51.796;10.956;2023-04-24T06:51:56;21.90;46.10
67899;DHT22;54699;51.796;10.956;2023-04-24T06:54:25;21.90;45.10
67899;DHT22;54699;51.796;10.956;2023-04-24T06:56:52;21.60;45.60
67899;DHT22;54699;51.796;10.956;2023-04-24T06:59:25;21.80;45.40
67899;DHT22;54699;51.796;10.956;2023-04-24T07:01:53;21.90;45.00
67899;DHT22;54699;51.796;10.956;2023-04-24T07:04:21;21.90;44.90
67899;DHT22;54699;51.796;10.956;2023-04-24T07:06:48;21.60;45.40
67899;DHT22;54699;51.796;10.956;2023-04-24T07:09:18;21.70;45.40
67899;DHT22;54699;51.796;10.956;2023-04-24T07:11:45;21.90;45.30
67899;DHT22;54699;51.796;10.956;2023-04-24T07:14:12;22.00;45.30
67899;DHT22;54699;51.796;10.956;2023-04-24T07:16:40;22.00;45.10
67899;DHT22;54699;51.796;10.956;2023-04-24T07:19:10;21.90;45.40
67899;DHT22;54699;51.796;10.956;2023-04-24T07:21:38;21.70;45.80
67899;DHT22;54699;51.796;10.956;2023-04-24T07:24:07;21.70;45.90
67899;DHT22;54699;51.796;10.956;2023-04-24T07:26:37;21.70;45.50
67899;DHT22;54699;51.796;10.956;2023-04-24T07:29:05;22.00;45.20
67899;DHT22;54699;51.796;10.956;2023-04-24T07:31:33;21.90;45.50
67899;DHT22;54699;51.796;10.956;2023-04-24T07:34:00;21.70;45.60
67899;DHT22;54699;51.796;10.956;2023-04-24T07:36:28;21.80;46.00
67899;DHT22;54699;51.796;10.956;2023-04-24T07:39:04;22.00;45.90
67899;DHT22;54699;51.796;10.956;2023-04-24T07:41:33;22.00;45.00
67899;DHT22;54699;51.796;10.956;2023-04-24T07:44:04;22.10;44.40
67899;DHT22;54699;51.796;10.956;2023-04-24T07:46:32;22.00;44.20
67899;DHT22;54699;51.796;10.956;2023-04-24T07:48:59;22.00;45.10
67899;DHT22;54699;51.796;10.956;2023-04-24T07:51:27;21.80;44.10
67899;DHT22;54699;51.796;10.956;2023-04-24T07:53:54;21.80;44.10
67899;DHT22;54699;51.796;10.956;2023-04-24T07:56:25;21.90;43.90
67899;DHT22;54699;51.796;10.956;2023-04-24T07:58:58;21.90;43.80
67899;DHT22;54699;51.796;10.956;2023-04-24T08:01:33;21.70;44.00
67899;DHT22;54699;51.796;10.956;2023-04-24T08:04:00;21.70;44.60
67899;DHT22;54699;51.796;10.956;2023-04-24T08:06:30;21.80;44.10
67899;DHT22;54699;51.796;10.956;2023-04-24T08:08:57;22.00;43.80
67899;DHT22;54699;51.796;10.956;2023-04-24T08:11:25;22.10;43.50
67899;DHT22;54699;51.796;10.956;2023-04-24T08:13:52;22.30;44.50
67899;DHT22;54699;51.796;10.956;2023-04-24T08:16:20;22.30;44.00
67899;DHT22;54699;51.796;10.956;2023-04-24T08:18:51;22.30;42.00
67899;DHT22;54699;51.796;10.956;2023-04-24T08:21:19;22.40;41.40
67899;DHT22;54699;51.796;10.956;2023-04-24T08:23:46;22.30;41.20
67899;DHT22;54699;51.796;10.956;2023-04-24T08:26:14;22.40;42.20
67899;DHT22;54699;51.796;10.956;2023-04-24T08:28:41;22.40;41.80
67899;DHT22;54699;51.796;10.956;2023-04-24T08:31:08;22.40;41.40
67899;DHT22;54699;51.796;10.956;2023-04-24T08:33:37;22.30;42.30
67899;DHT22;54699;51.796;10.956;2023-04-24T08:36:07;22.20;42.60
67899;DHT22;54699;51.796;10.956;2023-04-24T08:38:37;22.30;42.80
67899;DHT22;54699;51.796;10.956;2023-04-24T08:41:04;22.30;42.90
67899;DHT22;54699;51.796;10.956;2023-04-24T08:43:31;22.30;43.30
67899;DHT22;54699;51.796;10.956;2023-04-24T08:46:03;22.40;44.10
67899;DHT22;54699;51.796;10.956;2023-04-24T08:48:30;22.40;44.00
67899;DHT22;54699;51.796;10.956;2023-04-24T08:50:58;22.40;44.20
67899;DHT22;54699;51.796;10.956;2023-04-24T08:53:27;22.50;44.40
67899;DHT22;54699;51.796;10.956;2023-04-24T08:55:55;22.40;43.80
67899;DHT22;54699;51.796;10.956;2023-04-24T08:58:22;22.20;43.80
67899;DHT22;54699;51.796;10.956;2023-04-24T09:00:51;22.40;43.40
67899;DHT22;54699;51.796;10.956;2023-04-24T09:03:21;22.40;43.20
67899;DHT22;54699;51.796;10.956;2023-04-24T09:05:48;22.40;43.30
67899;DHT22;54699;51.796;10.956;2023-04-24T09:08:16;22.50;43.10
67899;DHT22;54699;51.796;10.956;2023-04-24T09:10:46;22.50;43.00
67899;DHT22;54699;51.796;10.956;2023-04-24T09:13:13;22.70;44.00
67899;DHT22;54699;51.796;10.956;2023-04-24T09:15:45;22.80;42.90
67899;DHT22;54699;51.796;10.956;2023-04-24T09:18:12;22.70;43.10
67899;DHT22;54699;51.796;10.956;2023-04-24T09:23:25;22.70;43.20
67899;DHT22;54699;51.796;10.956;2023-04-24T09:25:55;22.80;43.20
67899;DHT22;54699;51.796;10.956;2023-04-24T09:28:25;22.80;42.70
67899;DHT22;54699;51.796;10.956;2023-04-24T09:33:39;23.00;42.90
67899;DHT22;54699;51.796;10.956;2023-04-24T09:36:14;23.10;43.00
67899;DHT22;54699;51.796;10.956;2023-04-24T09:38:55;23.10;42.20
67899;DHT22;54699;51.796;10.956;2023-04-24T09:41:26;23.20;42.40
67899;DHT22;54699;51.796;10.956;2023-04-24T09:43:54;22.70;41.30
67899;DHT22;54699;51.796;10.956;2023-04-24T09:46:29;23.10;41.50
67899;DHT22;54699;51.796;10.956;2023-04-24T09:49:07;22.70;39.70
67899;DHT22;54699;51.796;10.956;2023-04-24T09:54:52;23.00;39.70
67899;DHT22;54699;51.796;10.956;2023-04-24T10:00:20;23.20;40.10
67899;DHT22;54699;51.796;10.956;2023-04-24T10:02:54;23.20;39.70
67899;DHT22;54699;51.796;10.956;2023-04-24T10:05:26;23.20;39.60
67899;DHT22;54699;51.796;10.956;2023-04-24T10:08:01;23.30;40.30
67899;DHT22;54699;51.796;10.956;2023-04-24T10:10:35;23.50;40.20
67899;DHT22;54699;51.796;10.956;2023-04-24T10:13:06;23.50;39.50
67899;DHT22;54699;51.796;10.956;2023-04-24T10:15:39;23.50;39.30
67899;DHT22;54699;51.796;10.956;2023-04-24T10:18:07;23.20;39.50
67899;DHT22;54699;51.796;10.956;2023-04-24T10:20:36;23.40;39.80
67899;DHT22;54699;51.796;10.956;2023-04-24T10:23:04;23.70;39.60
67899;DHT22;54699;51.796;10.956;2023-04-24T10:25:33;23.80;38.90
67899;DHT22;54699;51.796;10.956;2023-04-24T10:28:02;23.80;38.40
67899;DHT22;54699;51.796;10.956;2023-04-24T10:30:32;23.80;37.80
67899;DHT22;54699;51.796;10.956;2023-04-24T10:33:01;23.80;38.10
67899;DHT22;54699;51.796;10.956;2023-04-24T10:35:33;23.80;37.60
67899;DHT22;54699;51.796;10.956;2023-04-24T10:38:05;23.70;38.10
67899;DHT22;54699;51.796;10.956;2023-04-24T10:40:35;23.70;38.10
67899;DHT22;54699;51.796;10.956;2023-04-24T10:43:02;23.70;37.80
67899;DHT22;54699;51.796;10.956;2023-04-24T10:45:37;23.70;36.40
67899;DHT22;54699;51.796;10.956;2023-04-24T10:48:05;23.40;37.60
67899;DHT22;54699;51.796;10.956;2023-04-24T10:50:43;23.60;37.20
67899;DHT22;54699;51.796;10.956;2023-04-24T10:53:15;23.60;37.10
67899;DHT22;54699;51.796;10.956;2023-04-24T10:55:47;23.70;36.30
67899;DHT22;54699;51.796;10.956;2023-04-24T10:58:21;23.70;36.80
67899;DHT22;54699;51.796;10.956;2023-04-24T11:00:56;23.70;36.90
67899;DHT22;54699;51.796;10.956;2023-04-24T11:03:25;23.70;36.80
67899;DHT22;54699;51.796;10.956;2023-04-24T11:05:58;23.70;36.60
67899;DHT22;54699;51.796;10.956;2023-04-24T11:08:27;23.70;36.60
67899;DHT22;54699;51.796;10.956;2023-04-24T11:11:00;23.70;36.40
67899;DHT22;54699;51.796;10.956;2023-04-24T11:16:33;23.70;36.70
67899;DHT22;54699;51.796;10.956;2023-04-24T11:19:07;23.70;35.80
67899;DHT22;54699;51.796;10.956;2023-04-24T11:21:41;23.50;36.20
67899;DHT22;54699;51.796;10.956;2023-04-24T11:24:32;23.60;36.50
67899;DHT22;54699;51.796;10.956;2023-04-24T11:27:11;23.50;36.60
67899;DHT22;54699;51.796;10.956;2023-04-24T11:29:45;23.70;37.80
67899;DHT22;54699;51.796;10.956;2023-04-24T11:35:06;23.60;37.40
67899;DHT22;54699;51.796;10.956;2023-04-24T11:37:35;23.90;36.30
67899;DHT22;54699;51.796;10.956;2023-04-24T11:40:03;24.00;36.50
67899;DHT22;54699;51.796;10.956;2023-04-24T11:42:36;24.00;36.20
67899;DHT22;54699;51.796;10.956;2023-04-24T11:45:08;24.00;35.70
67899;DHT22;54699;51.796;10.956;2023-04-24T11:47:39;23.50;36.00
67899;DHT22;54699;51.796;10.956;2023-04-24T11:50:10;23.40;36.30
67899;DHT22;54699;51.796;10.956;2023-04-24T11:52:38;23.60;36.50
67899;DHT22;54699;51.796;10.956;2023-04-24T11:55:07;23.50;35.90
67899;DHT22;54699;51.796;10.956;2023-04-24T11:57:35;23.90;36.20
67899;DHT22;54699;51.796;10.956;2023-04-24T12:00:03;24.00;35.60
67899;DHT22;54699;51.796;10.956;2023-04-24T12:02:33;23.90;34.40
67899;DHT22;54699;51.796;10.956;2023-04-24T12:05:01;23.90;34.50
67899;DHT22;54699;51.796;10.956;2023-04-24T12:07:28;23.90;34.90
67899;DHT22;54699;51.796;10.956;2023-04-24T12:09:56;23.90;34.60
67899;DHT22;54699;51.796;10.956;2023-04-24T12:12:26;23.90;34.10
67899;DHT22;54699;51.796;10.956;2023-04-24T12:14:54;23.90;34.30
67899;DHT22;54699;51.796;10.956;2023-04-24T12:17:26;23.90;35.50
67899;DHT22;54699;51.796;10.956;2023-04-24T12:19:56;23.80;34.20
67899;DHT22;54699;51.796;10.956;2023-04-24T12:22:35;23.70;35.20
67899;DHT22;54699;51.796;10.956;2023-04-24T12:25:10;23.70;34.20
67899;DHT22;54699;51.796;10.956;2023-04-24T12:27:38;23.80;35.00
67899;DHT22;54699;51.796;10.956;2023-04-24T12:30:11;23.70;33.60
67899;DHT22;54699;51.796;10.956;2023-04-24T12:32:43;23.80;34.30
67899;DHT22;54699;51.796;10.956;2023-04-24T12:35:11;23.80;34.10
67899;DHT22;54699;51.796;10.956;2023-04-24T12:37:47;23.60;33.30
67899;DHT22;54699;51.796;10.956;2023-04-24T12:40:17;23.70;33.70
67899;DHT22;54699;51.796;10.956;2023-04-24T12:42:50;23.70;32.80
67899;DHT22;54699;51.796;10.956;2023-04-24T12:45:18;23.70;32.60
67899;DHT22;54699;51.796;10.956;2023-04-24T12:47:48;23.50;33.10
67899;DHT22;54699;51.796;10.956;2023-04-24T12:50:15;23.50;33.10
67899;DHT22;54699;51.796;10.956;2023-04-24T12:52:43;23.40;32.50
67899;DHT22;54699;51.796;10.956;2023-04-24T12:55:12;23.50;32.30
67899;DHT22;54699;51.796;10.956;2023-04-24T12:57:39;23.50;32.20
67899;DHT22;54699;51.796;10.956;2023-04-24T13:00:09;23.60;32.40
67899;DHT22;54699;51.796;10.956;2023-04-24T13:02:37;23.30;32.50
67899;DHT22;54699;51.796;10.956;2023-04-24T13:05:05;23.40;33.00
67899;DHT22;54699;51.796;10.956;2023-04-24T13:07:32;23.30;33.20
67899;DHT22;54699;51.796;10.956;2023-04-24T13:10:00;23.10;33.40
67899;DHT22;54699;51.796;10.956;2023-04-24T13:12:31;23.30;34.00
67899;DHT22;54699;51.796;10.956;2023-04-24T13:15:02;23.30;34.00
67899;DHT22;54699;51.796;10.956;2023-04-24T13:17:37;23.30;34.20
67899;DHT22;54699;51.796;10.956;2023-04-24T13:20:04;23.10;34.40
67899;DHT22;54699;51.796;10.956;2023-04-24T13:22:35;22.90;35.10
67899;DHT22;54699;51.796;10.956;2023-04-24T13:25:05;23.20;34.70
67899;DHT22;54699;51.796;10.956;2023-04-24T13:27:35;23.30;35.00
67899;DHT22;54699;51.796;10.956;2023-04-24T13:30:05;23.30;35.30
67899;DHT22;54699;51.796;10.956;2023-04-24T13:32:33;23.20;35.50
67899;DHT22;54699;51.796;10.956;2023-04-24T13:35:00;23.20;35.00
67899;DHT22;54699;51.796;10.956;2023-04-24T13:37:27;23.00;35.00
67899;DHT22;54699;51.796;10.956;2023-04-24T13:39:57;23.10;35.40
67899;DHT22;54699;51.796;10.956;2023-04-24T13:42:25;23.10;35.10
67899;DHT22;54699;51.796;10.956;2023-04-24T13:44:53;22.80;34.50
67899;DHT22;54699;51.796;10.956;2023-04-24T13:47:20;22.70;35.00
67899;DHT22;54699;51.796;10.956;2023-04-24T13:49:47;22.80;35.00
67899;DHT22;54699;51.796;10.956;2023-04-24T13:52:15;22.90;35.20
67899;DHT22;54699;51.796;10.956;2023-04-24T13:54:42;22.90;34.80
67899;DHT22;54699;51.796;10.956;2023-04-24T13:57:08;23.10;34.70
67899;DHT22;54699;51.796;10.956;2023-04-24T13:59:35;23.00;33.90
67899;DHT22;54699;51.796;10.956;2023-04-24T14:02:04;23.10;34.20
67899;DHT22;54699;51.796;10.956;2023-04-24T14:04:31;23.00;33.90
67899;DHT22;54699;51.796;10.956;2023-04-24T14:06:58;23.00;34.10
67899;DHT22;54699;51.796;10.956;2023-04-24T14:09:25;22.80;34.10
67899;DHT22;54699;51.796;10.956;2023-04-24T14:11:52;22.60;34.40
67899;DHT22;54699;51.796;10.956;2023-04-24T14:14:19;22.50;34.80
67899;DHT22;54699;51.796;10.956;2023-04-24T14:16:46;22.40;34.60
67899;DHT22;54699;51.796;10.956;2023-04-24T14:19:14;22.30;34.80
67899;DHT22;54699;51.796;10.956;2023-04-24T14:21:41;22.40;35.10
67899;DHT22;54699;51.796;10.956;2023-04-24T14:24:08;22.50;35.40
67899;DHT22;54699;51.796;10.956;2023-04-24T14:26:35;22.50;35.80
67899;DHT22;54699;51.796;10.956;2023-04-24T14:29:02;22.40;35.70
67899;DHT22;54699;51.796;10.956;2023-04-24T14:31:29;22.50;35.90
67899;DHT22;54699;51.796;10.956;2023-04-24T14:33:56;22.50;36.00
67899;DHT22;54699;51.796;10.956;2023-04-24T14:36:24;22.60;36.50
67899;DHT22;54699;51.796;10.956;2023-04-24T14:38:51;22.50;36.90
67899;DHT22;54699;51.796;10.956;2023-04-24T14:41:17;22.40;36.50
67899;DHT22;54699;51.796;10.956;2023-04-24T14:43:44;22.50;37.20
67899;DHT22;54699;51.796;10.956;2023-04-24T14:46:11;22.60;37.20
67899;DHT22;54699;51.796;10.956;2023-04-24T14:48:39;22.60;37.80
67899;DHT22;54699;51.796;10.956;2023-04-24T14:51:06;22.50;38.60
67899;DHT22;54699;51.796;10.956;2023-04-24T14:53:34;22.60;38.80
67899;DHT22;54699;51.796;10.956;2023-04-24T14:56:03;22.60;38.80
67899;DHT22;54699;51.796;10.956;2023-04-24T14:58:31;22.60;39.60
67899;DHT22;54699;51.796;10.956;2023-04-24T15:00:58;22.60;39.40
67899;DHT22;54699;51.796;10.956;2023-04-24T15:03:25;22.60;39.40
67899;DHT22;54699;51.796;10.956;2023-04-24T15:05:52;22.60;39.10
67899;DHT22;54699;51.796;10.956;2023-04-24T15:08:19;22.60;39.00
67899;DHT22;54699;51.796;10.956;2023-04-24T15:10:48;22.50;39.00
67899;DHT22;54699;51.796;10.956;2023-04-24T15:13:15;22.50;39.60
67899;DHT22;54699;51.796;10.956;2023-04-24T15:15:41;22.40;38.80
67899;DHT22;54699;51.796;10.956;2023-04-24T15:18:08;22.40;38.20
67899;DHT22;54699;51.796;10.956;2023-04-24T15:20:37;22.40;39.10
67899;DHT22;54699;51.796;10.956;2023-04-24T15:23:07;22.30;39.00
67899;DHT22;54699;51.796;10.956;2023-04-24T15:25:35;22.30;38.50
67899;DHT22;54699;51.796;10.956;2023-04-24T15:28:05;22.30;38.80
67899;DHT22;54699;51.796;10.956;2023-04-24T15:30:31;22.20;38.60
67899;DHT22;54699;51.796;10.956;2023-04-24T15:32:59;22.20;39.00
67899;DHT22;54699;51.796;10.956;2023-04-24T15:35:26;22.10;38.50
67899;DHT22;54699;51.796;10.956;2023-04-24T15:37:53;22.10;38.30
67899;DHT22;54699;51.796;10.956;2023-04-24T15:40:20;22.10;38.50
67899;DHT22;54699;51.796;10.956;2023-04-24T15:42:47;22.10;38.90